sensor_id;sensor_type;location;lat;lon;timestamp;P1;durP1;ratioP1;P2;durP2;ratioP2
26014;SDS011;13793;55.388;37.844;2023-05-16T00:00:43;19.00;;;13.07;;
26014;SDS011;13793;55.388;37.844;2023-05-16T00:03:13;16.93;;;12.37;;
26014;SDS011;13793;55.388;37.844;2023-05-16T00:05:44;24.67;;;12.67;;
26014;SDS011;13793;55.388;37.844;2023-05-16T00:08:15;19.30;;;12.17;;
26014;SDS011;13793;55.388;37.844;2023-05-16T00:10:46;20.00;;;12.07;;
26014;SDS011;13793;55.388;37.844;2023-05-16T00:13:17;18.60;;;12.00;;
26014;SDS011;13793;55.388;37.844;2023-05-16T00:15:52;16.90;;;11.17;;
26014;SDS011;13793;55.388;37.844;2023-05-16T00:18:23;17.90;;;10.97;;
26014;SDS011;13793;55.388;37.844;2023-05-16T00:20:54;20.60;;;11.07;;
26014;SDS011;13793;55.388;37.844;2023-05-16T00:23:25;20.67;;;10.70;;
26014;SDS011;13793;55.388;37.844;2023-05-16T00:25:55;23.67;;;10.73;;
26014;SDS011;13793;55.388;37.844;2023-05-16T00:28:26;19.03;;;11.80;;
26014;SDS011;13793;55.388;37.844;2023-05-16T00:30:58;16.33;;;10.67;;
26014;SDS011;13793;55.388;37.844;2023-05-16T00:33:29;16.67;;;10.40;;
26014;SDS011;13793;55.388;37.844;2023-05-16T00:36:00;14.67;;;10.17;;
26014;SDS011;13793;55.388;37.844;2023-05-16T00:38:30;16.93;;;10.33;;
26014;SDS011;13793;55.388;37.844;2023-05-16T00:41:01;18.27;;;9.73;;
26014;SDS011;13793;55.388;37.844;2023-05-16T00:43:32;16.37;;;10.53;;
26014;SDS011;13793;55.388;37.844;2023-05-16T00:46:02;20.57;;;10.80;;
26014;SDS011;13793;55.388;37.844;2023-05-16T00:48:32;17.13;;;10.40;;
26014;SDS011;13793;55.388;37.844;2023-05-16T00:51:03;19.40;;;9.27;;
26014;SDS011;13793;55.388;37.844;2023-05-16T00:53:35;21.23;;;10.80;;
26014;SDS011;13793;55.388;37.844;2023-05-16T00:56:08;16.80;;;9.43;;
26014;SDS011;13793;55.388;37.844;2023-05-16T00:58:39;18.27;;;10.13;;
26014;SDS011;13793;55.388;37.844;2023-05-16T01:01:10;19.90;;;10.07;;
26014;SDS011;13793;55.388;37.844;2023-05-16T01:03:41;19.60;;;9.23;;
26014;SDS011;13793;55.388;37.844;2023-05-16T01:06:13;15.13;;;9.67;;
26014;SDS011;13793;55.388;37.844;2023-05-16T01:08:43;14.03;;;9.03;;
26014;SDS011;13793;55.388;37.844;2023-05-16T01:13:55;13.60;;;8.47;;
26014;SDS011;13793;55.388;37.844;2023-05-16T01:16:48;14.63;;;9.30;;
26014;SDS011;13793;55.388;37.844;2023-05-16T01:19:46;13.80;;;9.10;;
26014;SDS011;13793;55.388;37.844;2023-05-16T01:22:37;16.10;;;9.73;;
26014;SDS011;13793;55.388;37.844;2023-05-16T01:25:26;17.20;;;9.93;;
26014;SDS011;13793;55.388;37.844;2023-05-16T01:28:15;15.87;;;9.60;;
26014;SDS011;13793;55.388;37.844;2023-05-16T01:30:46;18.40;;;9.87;;
26014;SDS011;13793;55.388;37.844;2023-05-16T01:33:16;18.47;;;9.10;;
26014;SDS011;13793;55.388;37.844;2023-05-16T01:35:55;15.53;;;9.30;;
26014;SDS011;13793;55.388;37.844;2023-05-16T01:38:32;13.93;;;8.67;;
26014;SDS011;13793;55.388;37.844;2023-05-16T01:43:50;14.85;;;9.78;;
26014;SDS011;13793;55.388;37.844;2023-05-16T01:46:25;19.47;;;9.27;;
26014;SDS011;13793;55.388;37.844;2023-05-16T01:51:51;15.37;;;8.87;;
26014;SDS011;13793;55.388;37.844;2023-05-16T01:54:23;13.90;;;9.40;;
26014;SDS011;13793;55.388;37.844;2023-05-16T01:56:55;16.73;;;8.67;;
26014;SDS011;13793;55.388;37.844;2023-05-16T01:59:26;18.53;;;9.27;;
26014;SDS011;13793;55.388;37.844;2023-05-16T02:01:57;15.17;;;8.50;;
26014;SDS011;13793;55.388;37.844;2023-05-16T02:04:28;18.20;;;8.80;;
26014;SDS011;13793;55.388;37.844;2023-05-16T02:06:59;14.10;;;8.23;;
26014;SDS011;13793;55.388;37.844;2023-05-16T02:09:30;15.53;;;8.87;;
26014;SDS011;13793;55.388;37.844;2023-05-16T02:12:01;14.67;;;8.57;;
26014;SDS011;13793;55.388;37.844;2023-05-16T02:14:32;16.53;;;8.53;;
26014;SDS011;13793;55.388;37.844;2023-05-16T02:17:03;17.63;;;8.73;;
26014;SDS011;13793;55.388;37.844;2023-05-16T02:19:33;14.93;;;8.10;;
26014;SDS011;13793;55.388;37.844;2023-05-16T02:22:04;15.10;;;8.20;;
26014;SDS011;13793;55.388;37.844;2023-05-16T02:24:35;12.57;;;8.43;;
26014;SDS011;13793;55.388;37.844;2023-05-16T02:27:05;14.70;;;8.40;;
26014;SDS011;13793;55.388;37.844;2023-05-16T02:29:36;10.87;;;8.10;;
26014;SDS011;13793;55.388;37.844;2023-05-16T02:32:07;12.33;;;8.17;;
26014;SDS011;13793;55.388;37.844;2023-05-16T02:34:37;13.50;;;8.33;;
26014;SDS011;13793;55.388;37.844;2023-05-16T02:37:08;11.87;;;8.50;;
26014;SDS011;13793;55.388;37.844;2023-05-16T02:39:39;14.67;;;8.13;;
26014;SDS011;13793;55.388;37.844;2023-05-16T02:42:13;10.37;;;7.30;;
26014;SDS011;13793;55.388;37.844;2023-05-16T02:44:44;16.77;;;7.70;;
26014;SDS011;13793;55.388;37.844;2023-05-16T02:47:14;12.67;;;7.73;;
26014;SDS011;13793;55.388;37.844;2023-05-16T02:49:45;11.53;;;7.77;;
26014;SDS011;13793;55.388;37.844;2023-05-16T02:52:15;12.47;;;7.53;;
26014;SDS011;13793;55.388;37.844;2023-05-16T02:54:46;11.23;;;8.03;;
26014;SDS011;13793;55.388;37.844;2023-05-16T02:57:17;13.40;;;8.10;;
26014;SDS011;13793;55.388;37.844;2023-05-16T02:59:47;13.07;;;7.43;;
26014;SDS011;13793;55.388;37.844;2023-05-16T03:02:18;14.77;;;7.30;;
26014;SDS011;13793;55.388;37.844;2023-05-16T03:04:49;12.70;;;6.90;;
26014;SDS011;13793;55.388;37.844;2023-05-16T03:07:20;13.27;;;7.77;;
26014;SDS011;13793;55.388;37.844;2023-05-16T03:09:50;14.83;;;7.17;;
26014;SDS011;13793;55.388;37.844;2023-05-16T03:12:21;10.83;;;7.40;;
26014;SDS011;13793;55.388;37.844;2023-05-16T03:14:54;11.23;;;7.07;;
26014;SDS011;13793;55.388;37.844;2023-05-16T03:17:24;10.83;;;7.30;;
26014;SDS011;13793;55.388;37.844;2023-05-16T03:19:55;13.03;;;7.53;;
26014;SDS011;13793;55.388;37.844;2023-05-16T03:22:25;12.80;;;7.03;;
26014;SDS011;13793;55.388;37.844;2023-05-16T03:24:55;12.80;;;6.87;;
26014;SDS011;13793;55.388;37.844;2023-05-16T03:27:30;11.53;;;6.37;;
26014;SDS011;13793;55.388;37.844;2023-05-16T03:30:01;7.47;;;5.13;;
26014;SDS011;13793;55.388;37.844;2023-05-16T03:32:32;9.90;;;6.23;;
26014;SDS011;13793;55.388;37.844;2023-05-16T03:35:03;8.93;;;6.27;;
26014;SDS011;13793;55.388;37.844;2023-05-16T03:37:34;9.45;;;6.10;;
26014;SDS011;13793;55.388;37.844;2023-05-16T03:40:06;9.75;;;5.55;;
26014;SDS011;13793;55.388;37.844;2023-05-16T03:42:37;8.53;;;4.85;;
26014;SDS011;13793;55.388;37.844;2023-05-16T03:45:08;8.70;;;5.00;;
26014;SDS011;13793;55.388;37.844;2023-05-16T03:47:39;4.83;;;4.22;;
26014;SDS011;13793;55.388;37.844;2023-05-16T03:50:10;5.33;;;4.30;;
26014;SDS011;13793;55.388;37.844;2023-05-16T03:52:40;7.40;;;3.62;;
26014;SDS011;13793;55.388;37.844;2023-05-16T03:55:23;6.05;;;4.00;;
26014;SDS011;13793;55.388;37.844;2023-05-16T03:57:54;6.05;;;3.22;;
26014;SDS011;13793;55.388;37.844;2023-05-16T04:00:25;6.70;;;3.52;;
26014;SDS011;13793;55.388;37.844;2023-05-16T04:02:56;6.35;;;3.37;;
26014;SDS011;13793;55.388;37.844;2023-05-16T04:05:27;5.58;;;3.10;;
26014;SDS011;13793;55.388;37.844;2023-05-16T04:07:58;6.05;;;3.47;;
26014;SDS011;13793;55.388;37.844;2023-05-16T04:10:41;4.08;;;3.00;;
26014;SDS011;13793;55.388;37.844;2023-05-16T04:13:11;8.13;;;3.40;;
26014;SDS011;13793;55.388;37.844;2023-05-16T04:15:45;5.80;;;3.42;;
26014;SDS011;13793;55.388;37.844;2023-05-16T04:18:28;4.42;;;3.02;;
26014;SDS011;13793;55.388;37.844;2023-05-16T04:20:58;3.75;;;2.80;;
26014;SDS011;13793;55.388;37.844;2023-05-16T04:23:29;5.00;;;3.20;;
26014;SDS011;13793;55.388;37.844;2023-05-16T04:26:00;4.90;;;3.00;;
26014;SDS011;13793;55.388;37.844;2023-05-16T04:28:32;5.00;;;3.05;;
26014;SDS011;13793;55.388;37.844;2023-05-16T04:31:15;6.35;;;3.02;;
26014;SDS011;13793;55.388;37.844;2023-05-16T04:33:46;5.75;;;2.67;;
26014;SDS011;13793;55.388;37.844;2023-05-16T04:36:16;3.27;;;2.50;;
26014;SDS011;13793;55.388;37.844;2023-05-16T04:38:47;6.12;;;2.75;;
26014;SDS011;13793;55.388;37.844;2023-05-16T04:41:17;5.03;;;2.75;;
26014;SDS011;13793;55.388;37.844;2023-05-16T04:43:48;4.92;;;2.52;;
26014;SDS011;13793;55.388;37.844;2023-05-16T04:46:19;5.58;;;2.50;;
26014;SDS011;13793;55.388;37.844;2023-05-16T04:48:50;3.60;;;2.30;;
26014;SDS011;13793;55.388;37.844;2023-05-16T04:51:20;5.15;;;2.30;;
26014;SDS011;13793;55.388;37.844;2023-05-16T04:53:51;5.42;;;2.55;;
26014;SDS011;13793;55.388;37.844;2023-05-16T04:56:22;5.85;;;2.40;;
26014;SDS011;13793;55.388;37.844;2023-05-16T04:58:54;4.25;;;2.45;;
26014;SDS011;13793;55.388;37.844;2023-05-16T05:01:25;3.27;;;2.10;;
26014;SDS011;13793;55.388;37.844;2023-05-16T05:04:20;7.00;;;2.37;;
26014;SDS011;13793;55.388;37.844;2023-05-16T05:06:50;2.87;;;1.70;;
26014;SDS011;13793;55.388;37.844;2023-05-16T05:09:22;6.00;;;2.00;;
26014;SDS011;13793;55.388;37.844;2023-05-16T05:11:53;3.77;;;2.12;;
26014;SDS011;13793;55.388;37.844;2023-05-16T05:14:24;3.80;;;1.60;;
26014;SDS011;13793;55.388;37.844;2023-05-16T05:16:55;2.02;;;1.40;;
26014;SDS011;13793;55.388;37.844;2023-05-16T05:19:25;3.40;;;1.77;;
26014;SDS011;13793;55.388;37.844;2023-05-16T05:21:59;3.22;;;1.52;;
26014;SDS011;13793;55.388;37.844;2023-05-16T05:24:30;1.80;;;1.57;;
26014;SDS011;13793;55.388;37.844;2023-05-16T05:27:00;2.27;;;1.77;;
26014;SDS011;13793;55.388;37.844;2023-05-16T05:29:31;3.77;;;1.70;;
26014;SDS011;13793;55.388;37.844;2023-05-16T05:32:02;3.62;;;1.30;;
26014;SDS011;13793;55.388;37.844;2023-05-16T05:34:33;2.22;;;0.98;;
26014;SDS011;13793;55.388;37.844;2023-05-16T05:37:06;1.98;;;1.05;;
26014;SDS011;13793;55.388;37.844;2023-05-16T05:39:37;1.90;;;1.00;;
26014;SDS011;13793;55.388;37.844;2023-05-16T05:42:08;1.62;;;1.12;;
26014;SDS011;13793;55.388;37.844;2023-05-16T05:44:39;5.05;;;1.20;;
26014;SDS011;13793;55.388;37.844;2023-05-16T05:47:10;2.00;;;0.90;;
26014;SDS011;13793;55.388;37.844;2023-05-16T05:49:41;2.25;;;1.05;;
26014;SDS011;13793;55.388;37.844;2023-05-16T05:52:12;2.35;;;0.98;;
26014;SDS011;13793;55.388;37.844;2023-05-16T05:54:43;2.35;;;1.10;;
26014;SDS011;13793;55.388;37.844;2023-05-16T05:57:14;3.33;;;1.30;;
26014;SDS011;13793;55.388;37.844;2023-05-16T05:59:45;2.98;;;0.90;;
26014;SDS011;13793;55.388;37.844;2023-05-16T06:02:15;2.67;;;1.17;;
26014;SDS011;13793;55.388;37.844;2023-05-16T06:04:46;3.08;;;1.10;;
26014;SDS011;13793;55.388;37.844;2023-05-16T06:07:17;2.98;;;1.07;;
26014;SDS011;13793;55.388;37.844;2023-05-16T06:09:47;1.77;;;0.80;;
26014;SDS011;13793;55.388;37.844;2023-05-16T06:12:19;1.42;;;0.80;;
26014;SDS011;13793;55.388;37.844;2023-05-16T06:14:49;3.25;;;0.90;;
26014;SDS011;13793;55.388;37.844;2023-05-16T06:17:20;2.52;;;1.10;;
26014;SDS011;13793;55.388;37.844;2023-05-16T06:19:51;1.82;;;0.80;;
26014;SDS011;13793;55.388;37.844;2023-05-16T06:22:22;1.05;;;0.80;;
26014;SDS011;13793;55.388;37.844;2023-05-16T06:24:53;1.37;;;0.60;;
26014;SDS011;13793;55.388;37.844;2023-05-16T06:27:24;0.82;;;0.70;;
26014;SDS011;13793;55.388;37.844;2023-05-16T06:29:54;1.07;;;0.80;;
26014;SDS011;13793;55.388;37.844;2023-05-16T06:32:25;1.55;;;0.80;;
26014;SDS011;13793;55.388;37.844;2023-05-16T06:34:56;3.10;;;1.00;;
26014;SDS011;13793;55.388;37.844;2023-05-16T06:37:27;2.75;;;0.72;;
26014;SDS011;13793;55.388;37.844;2023-05-16T06:39:58;2.45;;;0.90;;
26014;SDS011;13793;55.388;37.844;2023-05-16T06:42:31;2.35;;;0.80;;
26014;SDS011;13793;55.388;37.844;2023-05-16T06:45:01;2.52;;;0.90;;
26014;SDS011;13793;55.388;37.844;2023-05-16T06:47:33;0.80;;;0.68;;
26014;SDS011;13793;55.388;37.844;2023-05-16T06:50:04;2.25;;;0.93;;
26014;SDS011;13793;55.388;37.844;2023-05-16T06:52:35;2.42;;;1.20;;
26014;SDS011;13793;55.388;37.844;2023-05-16T06:55:06;3.20;;;1.00;;
26014;SDS011;13793;55.388;37.844;2023-05-16T06:57:37;1.65;;;0.90;;
26014;SDS011;13793;55.388;37.844;2023-05-16T07:00:08;2.22;;;0.88;;
26014;SDS011;13793;55.388;37.844;2023-05-16T07:02:39;2.20;;;0.95;;
26014;SDS011;13793;55.388;37.844;2023-05-16T07:05:10;2.55;;;0.80;;
26014;SDS011;13793;55.388;37.844;2023-05-16T07:07:41;0.90;;;0.90;;
26014;SDS011;13793;55.388;37.844;2023-05-16T07:10:11;3.47;;;0.82;;
26014;SDS011;13793;55.388;37.844;2023-05-16T07:12:42;4.62;;;0.80;;
26014;SDS011;13793;55.388;37.844;2023-05-16T07:15:12;4.00;;;1.00;;
26014;SDS011;13793;55.388;37.844;2023-05-16T07:17:42;2.12;;;1.00;;
26014;SDS011;13793;55.388;37.844;2023-05-16T07:20:13;1.57;;;0.95;;
26014;SDS011;13793;55.388;37.844;2023-05-16T07:22:44;4.60;;;0.90;;
26014;SDS011;13793;55.388;37.844;2023-05-16T07:25:14;3.52;;;0.60;;
26014;SDS011;13793;55.388;37.844;2023-05-16T07:27:46;1.60;;;0.90;;
26014;SDS011;13793;55.388;37.844;2023-05-16T07:30:16;2.37;;;0.80;;
26014;SDS011;13793;55.388;37.844;2023-05-16T07:32:48;1.47;;;0.70;;
26014;SDS011;13793;55.388;37.844;2023-05-16T07:35:18;1.50;;;0.80;;
26014;SDS011;13793;55.388;37.844;2023-05-16T07:37:49;1.67;;;0.60;;
26014;SDS011;13793;55.388;37.844;2023-05-16T07:40:20;2.02;;;0.57;;
26014;SDS011;13793;55.388;37.844;2023-05-16T07:42:53;1.02;;;0.62;;
26014;SDS011;13793;55.388;37.844;2023-05-16T07:45:23;2.65;;;0.70;;
26014;SDS011;13793;55.388;37.844;2023-05-16T07:47:54;2.27;;;0.68;;
26014;SDS011;13793;55.388;37.844;2023-05-16T07:50:25;2.05;;;0.70;;
26014;SDS011;13793;55.388;37.844;2023-05-16T07:52:56;0.85;;;0.65;;
26014;SDS011;13793;55.388;37.844;2023-05-16T07:55:27;0.72;;;0.50;;
26014;SDS011;13793;55.388;37.844;2023-05-16T07:57:57;0.78;;;0.45;;
26014;SDS011;13793;55.388;37.844;2023-05-16T08:00:28;2.47;;;0.50;;
26014;SDS011;13793;55.388;37.844;2023-05-16T08:02:59;1.15;;;0.50;;
26014;SDS011;13793;55.388;37.844;2023-05-16T08:05:35;2.27;;;0.50;;
26014;SDS011;13793;55.388;37.844;2023-05-16T08:08:07;1.75;;;0.40;;
26014;SDS011;13793;55.388;37.844;2023-05-16T08:10:37;2.60;;;0.65;;
26014;SDS011;13793;55.388;37.844;2023-05-16T08:13:08;1.80;;;0.70;;
26014;SDS011;13793;55.388;37.844;2023-05-16T08:15:38;0.57;;;0.57;;
26014;SDS011;13793;55.388;37.844;2023-05-16T08:18:12;0.95;;;0.40;;
26014;SDS011;13793;55.388;37.844;2023-05-16T08:20:43;0.80;;;0.42;;
26014;SDS011;13793;55.388;37.844;2023-05-16T08:23:14;2.42;;;0.50;;
26014;SDS011;13793;55.388;37.844;2023-05-16T08:25:45;4.12;;;0.70;;
26014;SDS011;13793;55.388;37.844;2023-05-16T08:28:16;1.72;;;0.70;;
26014;SDS011;13793;55.388;37.844;2023-05-16T08:30:46;1.20;;;0.45;;
26014;SDS011;13793;55.388;37.844;2023-05-16T08:33:17;1.80;;;0.70;;
26014;SDS011;13793;55.388;37.844;2023-05-16T08:35:49;3.35;;;0.55;;
26014;SDS011;13793;55.388;37.844;2023-05-16T08:38:22;1.15;;;0.40;;
26014;SDS011;13793;55.388;37.844;2023-05-16T08:40:53;2.75;;;0.70;;
26014;SDS011;13793;55.388;37.844;2023-05-16T08:43:24;1.17;;;0.60;;
26014;SDS011;13793;55.388;37.844;2023-05-16T08:45:55;2.87;;;0.40;;
26014;SDS011;13793;55.388;37.844;2023-05-16T08:48:25;3.08;;;0.55;;
26014;SDS011;13793;55.388;37.844;2023-05-16T08:50:57;2.67;;;0.50;;
26014;SDS011;13793;55.388;37.844;2023-05-16T08:53:35;2.10;;;0.62;;
26014;SDS011;13793;55.388;37.844;2023-05-16T08:56:06;0.98;;;0.40;;
26014;SDS011;13793;55.388;37.844;2023-05-16T08:58:37;1.10;;;0.60;;
26014;SDS011;13793;55.388;37.844;2023-05-16T09:01:08;0.90;;;0.50;;
26014;SDS011;13793;55.388;37.844;2023-05-16T09:03:39;2.52;;;0.40;;
26014;SDS011;13793;55.388;37.844;2023-05-16T09:06:10;5.10;;;0.70;;
26014;SDS011;13793;55.388;37.844;2023-05-16T09:08:41;1.30;;;0.60;;
26014;SDS011;13793;55.388;37.844;2023-05-16T09:11:11;2.52;;;0.70;;
26014;SDS011;13793;55.388;37.844;2023-05-16T09:13:42;2.02;;;0.80;;
26014;SDS011;13793;55.388;37.844;2023-05-16T09:16:14;1.65;;;0.60;;
26014;SDS011;13793;55.388;37.844;2023-05-16T09:18:51;1.10;;;0.50;;
26014;SDS011;13793;55.388;37.844;2023-05-16T09:21:28;1.30;;;0.70;;
26014;SDS011;13793;55.388;37.844;2023-05-16T09:24:03;3.33;;;0.55;;
26014;SDS011;13793;55.388;37.844;2023-05-16T09:26:36;1.50;;;0.75;;
26014;SDS011;13793;55.388;37.844;2023-05-16T09:29:10;1.42;;;0.50;;
26014;SDS011;13793;55.388;37.844;2023-05-16T09:31:41;2.12;;;0.60;;
26014;SDS011;13793;55.388;37.844;2023-05-16T09:34:12;2.58;;;0.70;;
26014;SDS011;13793;55.388;37.844;2023-05-16T09:36:43;2.62;;;0.57;;
26014;SDS011;13793;55.388;37.844;2023-05-16T09:39:27;3.72;;;0.80;;
26014;SDS011;13793;55.388;37.844;2023-05-16T09:41:58;2.65;;;0.90;;
26014;SDS011;13793;55.388;37.844;2023-05-16T09:44:32;2.30;;;1.00;;
26014;SDS011;13793;55.388;37.844;2023-05-16T09:47:03;1.90;;;0.70;;
26014;SDS011;13793;55.388;37.844;2023-05-16T09:49:35;2.27;;;1.02;;
26014;SDS011;13793;55.388;37.844;2023-05-16T09:52:18;1.77;;;0.60;;
26014;SDS011;13793;55.388;37.844;2023-05-16T09:54:49;2.92;;;0.53;;
26014;SDS011;13793;55.388;37.844;2023-05-16T09:57:32;1.72;;;0.72;;
26014;SDS011;13793;55.388;37.844;2023-05-16T10:00:11;1.55;;;1.20;;
26014;SDS011;13793;55.388;37.844;2023-05-16T10:03:06;1.25;;;0.78;;
26014;SDS011;13793;55.388;37.844;2023-05-16T10:05:37;1.90;;;0.93;;
26014;SDS011;13793;55.388;37.844;2023-05-16T10:08:09;1.65;;;0.70;;
26014;SDS011;13793;55.388;37.844;2023-05-16T10:10:40;1.95;;;0.70;;
26014;SDS011;13793;55.388;37.844;2023-05-16T10:13:35;4.00;;;0.70;;
26014;SDS011;13793;55.388;37.844;2023-05-16T10:16:08;2.98;;;0.68;;
26014;SDS011;13793;55.388;37.844;2023-05-16T10:18:40;1.35;;;0.50;;
26014;SDS011;13793;55.388;37.844;2023-05-16T10:21:42;1.82;;;0.50;;
26014;SDS011;13793;55.388;37.844;2023-05-16T10:24:14;0.80;;;0.47;;
26014;SDS011;13793;55.388;37.844;2023-05-16T10:26:47;5.28;;;1.60;;
26014;SDS011;13793;55.388;37.844;2023-05-16T10:29:19;2.15;;;0.50;;
26014;SDS011;13793;55.388;37.844;2023-05-16T10:31:50;3.10;;;0.57;;
26014;SDS011;13793;55.388;37.844;2023-05-16T10:37:22;2.72;;;0.72;;
26014;SDS011;13793;55.388;37.844;2023-05-16T10:39:53;3.08;;;0.60;;
26014;SDS011;13793;55.388;37.844;2023-05-16T10:42:25;1.20;;;0.50;;
26014;SDS011;13793;55.388;37.844;2023-05-16T10:45:15;2.05;;;0.53;;
26014;SDS011;13793;55.388;37.844;2023-05-16T10:47:55;4.87;;;0.70;;
26014;SDS011;13793;55.388;37.844;2023-05-16T10:50:30;3.42;;;0.60;;
26014;SDS011;13793;55.388;37.844;2023-05-16T10:53:14;0.68;;;0.35;;
26014;SDS011;13793;55.388;37.844;2023-05-16T11:06:42;3.67;;;3.15;;
26014;SDS011;13793;55.388;37.844;2023-05-16T11:09:25;1.92;;;0.60;;
26014;SDS011;13793;55.388;37.844;2023-05-16T11:12:05;2.02;;;1.00;;
26014;SDS011;13793;55.388;37.844;2023-05-16T11:17:20;1.20;;;0.40;;
26014;SDS011;13793;55.388;37.844;2023-05-16T11:19:54;0.70;;;0.50;;
26014;SDS011;13793;55.388;37.844;2023-05-16T11:22:31;0.60;;;0.57;;
26014;SDS011;13793;55.388;37.844;2023-05-16T11:25:02;2.00;;;0.68;;
26014;SDS011;13793;55.388;37.844;2023-05-16T11:27:35;0.78;;;0.60;;
26014;SDS011;13793;55.388;37.844;2023-05-16T11:30:11;1.27;;;0.47;;
26014;SDS011;13793;55.388;37.844;2023-05-16T11:33:01;2.12;;;0.65;;
26014;SDS011;13793;55.388;37.844;2023-05-16T11:35:32;1.15;;;0.40;;
26014;SDS011;13793;55.388;37.844;2023-05-16T11:38:04;2.27;;;0.47;;
26014;SDS011;13793;55.388;37.844;2023-05-16T11:40:35;2.55;;;0.60;;
26014;SDS011;13793;55.388;37.844;2023-05-16T11:43:07;3.00;;;0.75;;
26014;SDS011;13793;55.388;37.844;2023-05-16T11:45:37;2.42;;;0.50;;
26014;SDS011;13793;55.388;37.844;2023-05-16T11:48:22;1.32;;;0.57;;
26014;SDS011;13793;55.388;37.844;2023-05-16T11:50:53;1.82;;;0.57;;
26014;SDS011;13793;55.388;37.844;2023-05-16T11:53:24;2.10;;;0.55;;
26014;SDS011;13793;55.388;37.844;2023-05-16T11:55:55;1.35;;;0.50;;
26014;SDS011;13793;55.388;37.844;2023-05-16T11:58:28;1.82;;;0.40;;
26014;SDS011;13793;55.388;37.844;2023-05-16T12:00:58;1.72;;;0.50;;
26014;SDS011;13793;55.388;37.844;2023-05-16T12:03:42;2.37;;;0.60;;
26014;SDS011;13793;55.388;37.844;2023-05-16T12:06:13;1.22;;;0.50;;
26014;SDS011;13793;55.388;37.844;2023-05-16T12:08:58;3.95;;;0.60;;
26014;SDS011;13793;55.388;37.844;2023-05-16T12:11:30;1.25;;;0.65;;
26014;SDS011;13793;55.388;37.844;2023-05-16T12:14:19;1.60;;;0.45;;
26014;SDS011;13793;55.388;37.844;2023-05-16T12:16:50;1.12;;;0.50;;
26014;SDS011;13793;55.388;37.844;2023-05-16T12:19:21;2.70;;;0.72;;
26014;SDS011;13793;55.388;37.844;2023-05-16T12:21:52;0.95;;;0.50;;
26014;SDS011;13793;55.388;37.844;2023-05-16T12:24:33;1.67;;;0.60;;
26014;SDS011;13793;55.388;37.844;2023-05-16T12:27:04;0.90;;;0.50;;
26014;SDS011;13793;55.388;37.844;2023-05-16T12:29:37;2.10;;;0.60;;
26014;SDS011;13793;55.388;37.844;2023-05-16T12:32:07;0.68;;;0.40;;
26014;SDS011;13793;55.388;37.844;2023-05-16T12:34:38;3.30;;;0.88;;
26014;SDS011;13793;55.388;37.844;2023-05-16T12:37:08;0.70;;;0.60;;
26014;SDS011;13793;55.388;37.844;2023-05-16T12:39:39;1.65;;;0.60;;
26014;SDS011;13793;55.388;37.844;2023-05-16T12:42:10;1.02;;;0.68;;
26014;SDS011;13793;55.388;37.844;2023-05-16T12:44:43;0.75;;;0.50;;
26014;SDS011;13793;55.388;37.844;2023-05-16T12:47:15;3.15;;;0.60;;
26014;SDS011;13793;55.388;37.844;2023-05-16T12:49:45;1.42;;;0.60;;
26014;SDS011;13793;55.388;37.844;2023-05-16T12:52:19;4.42;;;0.50;;
26014;SDS011;13793;55.388;37.844;2023-05-16T12:54:49;5.35;;;0.80;;
26014;SDS011;13793;55.388;37.844;2023-05-16T12:57:21;4.53;;;0.60;;
26014;SDS011;13793;55.388;37.844;2023-05-16T12:59:51;1.75;;;0.60;;
26014;SDS011;13793;55.388;37.844;2023-05-16T13:02:22;3.50;;;0.50;;
26014;SDS011;13793;55.388;37.844;2023-05-16T13:04:53;1.82;;;0.60;;
26014;SDS011;13793;55.388;37.844;2023-05-16T13:07:24;2.40;;;0.70;;
26014;SDS011;13793;55.388;37.844;2023-05-16T13:09:54;0.68;;;0.50;;
26014;SDS011;13793;55.388;37.844;2023-05-16T13:12:25;2.27;;;0.80;;
26014;SDS011;13793;55.388;37.844;2023-05-16T13:14:56;2.50;;;0.60;;
26014;SDS011;13793;55.388;37.844;2023-05-16T13:17:27;1.07;;;0.47;;
26014;SDS011;13793;55.388;37.844;2023-05-16T13:19:58;2.55;;;0.62;;
26014;SDS011;13793;55.388;37.844;2023-05-16T13:22:30;2.47;;;0.60;;
26014;SDS011;13793;55.388;37.844;2023-05-16T13:25:00;0.85;;;0.68;;
26014;SDS011;13793;55.388;37.844;2023-05-16T13:27:33;18.62;;;10.98;;
26014;SDS011;13793;55.388;37.844;2023-05-16T13:30:04;4.00;;;2.37;;
26014;SDS011;13793;55.388;37.844;2023-05-16T13:32:37;1.45;;;0.80;;
26014;SDS011;13793;55.388;37.844;2023-05-16T13:35:08;1.45;;;0.62;;
26014;SDS011;13793;55.388;37.844;2023-05-16T13:37:38;1.55;;;0.70;;
26014;SDS011;13793;55.388;37.844;2023-05-16T13:40:09;1.80;;;0.60;;
26014;SDS011;13793;55.388;37.844;2023-05-16T13:42:40;0.93;;;0.62;;
26014;SDS011;13793;55.388;37.844;2023-05-16T13:45:11;2.77;;;0.95;;
26014;SDS011;13793;55.388;37.844;2023-05-16T13:47:42;1.32;;;0.70;;
26014;SDS011;13793;55.388;37.844;2023-05-16T13:50:12;3.58;;;0.90;;
26014;SDS011;13793;55.388;37.844;2023-05-16T13:52:42;4.35;;;0.80;;
26014;SDS011;13793;55.388;37.844;2023-05-16T13:55:14;5.72;;;0.78;;
26014;SDS011;13793;55.388;37.844;2023-05-16T13:57:46;0.90;;;0.60;;
26014;SDS011;13793;55.388;37.844;2023-05-16T14:00:18;0.62;;;0.50;;
26014;SDS011;13793;55.388;37.844;2023-05-16T14:02:48;1.95;;;1.10;;
26014;SDS011;13793;55.388;37.844;2023-05-16T14:05:20;2.83;;;0.78;;
26014;SDS011;13793;55.388;37.844;2023-05-16T14:07:51;1.27;;;0.65;;
26014;SDS011;13793;55.388;37.844;2023-05-16T14:10:21;2.35;;;0.90;;
26014;SDS011;13793;55.388;37.844;2023-05-16T14:12:52;2.10;;;0.70;;
26014;SDS011;13793;55.388;37.844;2023-05-16T14:15:22;3.22;;;0.85;;
26014;SDS011;13793;55.388;37.844;2023-05-16T14:17:53;2.50;;;0.90;;
26014;SDS011;13793;55.388;37.844;2023-05-16T14:20:25;2.80;;;0.80;;
26014;SDS011;13793;55.388;37.844;2023-05-16T14:22:55;1.35;;;0.80;;
26014;SDS011;13793;55.388;37.844;2023-05-16T14:25:26;1.95;;;0.78;;
26014;SDS011;13793;55.388;37.844;2023-05-16T14:27:57;1.40;;;0.90;;
26014;SDS011;13793;55.388;37.844;2023-05-16T14:30:27;1.67;;;0.85;;
26014;SDS011;13793;55.388;37.844;2023-05-16T14:32:59;2.60;;;1.10;;
26014;SDS011;13793;55.388;37.844;2023-05-16T14:35:31;5.45;;;1.30;;
26014;SDS011;13793;55.388;37.844;2023-05-16T14:38:01;3.33;;;1.00;;
26014;SDS011;13793;55.388;37.844;2023-05-16T14:40:32;3.15;;;1.20;;
26014;SDS011;13793;55.388;37.844;2023-05-16T14:43:03;1.72;;;0.90;;
26014;SDS011;13793;55.388;37.844;2023-05-16T14:45:34;4.55;;;1.12;;
26014;SDS011;13793;55.388;37.844;2023-05-16T14:48:05;2.62;;;1.02;;
26014;SDS011;13793;55.388;37.844;2023-05-16T14:50:37;2.75;;;0.95;;
26014;SDS011;13793;55.388;37.844;2023-05-16T14:53:07;2.87;;;0.95;;
26014;SDS011;13793;55.388;37.844;2023-05-16T14:55:38;3.83;;;1.10;;
26014;SDS011;13793;55.388;37.844;2023-05-16T14:58:08;3.42;;;1.10;;
26014;SDS011;13793;55.388;37.844;2023-05-16T15:00:39;2.62;;;1.17;;
26014;SDS011;13793;55.388;37.844;2023-05-16T15:03:09;2.92;;;0.80;;
26014;SDS011;13793;55.388;37.844;2023-05-16T15:05:40;1.98;;;0.80;;
26014;SDS011;13793;55.388;37.844;2023-05-16T15:08:10;5.97;;;2.70;;
26014;SDS011;13793;55.388;37.844;2023-05-16T15:10:41;2.35;;;1.20;;
26014;SDS011;13793;55.388;37.844;2023-05-16T15:13:11;2.77;;;2.30;;
26014;SDS011;13793;55.388;37.844;2023-05-16T15:15:42;1.37;;;1.10;;
26014;SDS011;13793;55.388;37.844;2023-05-16T15:18:13;5.10;;;2.67;;
26014;SDS011;13793;55.388;37.844;2023-05-16T15:20:44;7.65;;;5.65;;
26014;SDS011;13793;55.388;37.844;2023-05-16T15:23:15;2.40;;;1.30;;
26014;SDS011;13793;55.388;37.844;2023-05-16T15:25:45;2.98;;;1.50;;